Worland, WY

1:36 PM MDT on July 06, 2015 (GMT -0600)
Worland Municipal | | Change Station
CLOSE
Current Station
Airport
Location: Worland,
Elevation: 4226 ft
Nearby Weather Stations

Elev 4226 ft 43.97 °N, 107.95 °W | Updated 43 minutes ago

Overcast
Overcast
64 °F
Feels Like 64 °F
N
4
Wind Variable Wind from West

Today
High -- | Low -- °F
--% Chance of Precip.
Yesterday
High -- | Low -- °F
Precip. -- in
5:35 AM 8:57 PM
Waning Gibbous, 73% visible
Pressure 30.18 in
Visibility 7.0 miles
Clouds Overcast 3100 ft
Dew Point 51 °F
Humidity 63%
Rainfall 0.00 in
Snow Depth Not available.
UV 4 out of 12
Pollen 3.90 out of 12
Air Quality Not available.
Flu Activity Not available.
METAR KWRL 061853Z AUTO 28003KT 7SM OVC031 18/11 A3025 RMK AO2 SLP219 T01780106

More Conditions Fewer Conditions

Pressure 30.18 in
Visibility 7.0 miles
Clouds Overcast 3100 ft
Dew Point 51 °F
Humidity 63%
Rainfall 0.00 in
Snow Depth Not available.
UV 4 out of 12
Pollen 3.90 out of 12
Air Quality Not available.
Flu Activity Not available.
METAR KWRL 061853Z AUTO 28003KT 7SM OVC031 18/11 A3025 RMK AO2 SLP219 T01780106

More Conditions Fewer Conditions

10-Day Weather Forecast

×

Almanac

Astronomy

Jul. 06, 2015 Rise Set
Actual Time
Civil Twilight
Nautical Twilight
Astronomical Twilight
Moon
Length of Visible Light
Length of Day
Tomorrow will be .
, % of the Moon is Illuminated

Today's Extremes

State Highs State Lows

Community

WunderPhotos

Upload Photos

1,835,623 photos uploaded!

WunderBlogs® & News

Nearby

Air Quality

  Air Quality AQ Index Pollutant
Not available.

Snow Depth

Station Depth Elevation

Earthquake Activity

City Distance Mag. Time & Date
Minimum magnitude displayed is 2.5.

Coastal Water Temperatures

Place Temperature

Stations

Nearby Weather Stations

Station Location Temp. Windchill Dew Point Humidity Wind Precip. Elev Updated Type